Time;durP1;ratioP1;P1;durP2;ratioP2;P2;SDS_P1;SDS_P2;PMS_P1;PMS_P2;Temp;Humidity;BMP_temperature;BMP_pressure;BME280_temperature;BME280_humidity;BME280_pressure;Samples;Min_cycle;Max_cycle;Signal;HPM_P1;HPM_P2
2024/01/26 00:01:39;;;;;;;2.95;2.33;;;;;;;;;;4954887;29;20035;-59
2024/01/26 00:04:05;;;;;;;3.97;2.15;;;;;;;;;;4954356;28;20047;-60
2024/01/26 00:06:31;;;;;;;4.88;2.30;;;;;;;;;;4954550;28;20399;-59
2024/01/26 00:09:13;;;;;;;5.32;2.35;;;;;;;;;;4955141;28;20514;-58
2024/01/26 00:11:40;;;;;;;6.65;2.50;;;;;;;;;;4954679;28;20047;-58
2024/01/26 00:14:10;;;;;;;3.60;2.35;;;;;;;;;;4954385;28;20058;-59
2024/01/26 00:16:37;;;;;;;3.63;2.15;;;;;;;;;;4954234;28;20047;-58
2024/01/26 00:19:04;;;;;;;4.05;2.47;;;;;;;;;;4955048;28;20537;-58
2024/01/26 00:21:30;;;;;;;4.43;2.47;;;;;;;;;;4952962;28;20423;-60
2024/01/26 00:23:57;;;;;;;4.25;2.55;;;;;;;;;;4954770;29;20105;-59
2024/01/26 00:26:23;;;;;;;3.58;2.30;;;;;;;;;;4954028;28;20054;-58
2024/01/26 00:28:49;;;;;;;3.72;2.50;;;;;;;;;;4950819;28;20058;-58
2024/01/26 00:31:18;;;;;;;3.72;2.25;;;;;;;;;;4951498;29;20043;-59
2024/01/26 00:33:45;;;;;;;4.70;2.50;;;;;;;;;;4955069;29;20054;-59
2024/01/26 00:36:12;;;;;;;5.25;2.58;;;;;;;;;;4954567;28;20047;-58
2024/01/26 00:38:41;;;;;;;5.43;2.80;;;;;;;;;;4954336;29;20035;-58
2024/01/26 00:41:08;;;;;;;4.38;2.40;;;;;;;;;;4954687;28;20070;-60
2024/01/26 00:43:34;;;;;;;4.68;2.80;;;;;;;;;;4954235;29;20054;-58
2024/01/26 00:46:00;;;;;;;4.93;2.58;;;;;;;;;;4954223;28;20055;-59
2024/01/26 00:48:26;;;;;;;6.85;3.60;;;;;;;;;;4953696;29;20487;-57
2024/01/26 00:50:54;;;;;;;5.60;2.70;;;;;;;;;;4954675;28;20043;-60
2024/01/26 00:53:21;;;;;;;5.82;2.78;;;;;;;;;;4952765;29;20046;-57
2024/01/26 00:55:48;;;;;;;5.68;2.70;;;;;;;;;;4953976;28;20050;-58
2024/01/26 00:58:14;;;;;;;4.93;3.00;;;;;;;;;;4951002;29;20042;-58
2024/01/26 01:00:40;;;;;;;5.70;2.92;;;;;;;;;;4954373;29;20035;-59
2024/01/26 01:03:07;;;;;;;5.93;2.95;;;;;;;;;;4953474;28;20051;-58
2024/01/26 01:05:33;;;;;;;6.63;2.85;;;;;;;;;;4952489;28;20526;-58
2024/01/26 01:07:59;;;;;;;3.97;2.50;;;;;;;;;;4953957;28;20052;-58
2024/01/26 01:10:26;;;;;;;5.85;2.70;;;;;;;;;;4954073;28;20055;-58
2024/01/26 01:12:52;;;;;;;5.13;2.40;;;;;;;;;;4954015;29;20031;-58
2024/01/26 01:15:18;;;;;;;5.07;2.50;;;;;;;;;;4952624;28;20043;-58
2024/01/26 01:17:46;;;;;;;4.82;2.63;;;;;;;;;;4953764;28;20051;-58
2024/01/26 01:20:13;;;;;;;7.13;2.90;;;;;;;;;;4953936;28;20047;-59
2024/01/26 01:22:49;;;;;;;7.72;2.60;;;;;;;;;;4953638;29;20038;-58
2024/01/26 01:25:16;;;;;;;4.35;2.55;;;;;;;;;;4965320;28;20626;-59
2024/01/26 01:27:42;;;;;;;6.82;3.13;;;;;;;;;;4953680;28;20035;-59
2024/01/26 01:30:09;;;;;;;4.05;2.50;;;;;;;;;;4951300;29;20058;-58
2024/01/26 01:32:35;;;;;;;6.03;2.50;;;;;;;;;;4951838;28;20043;-58
2024/01/26 01:35:02;;;;;;;5.45;3.08;;;;;;;;;;4952718;29;20420;-58
2024/01/26 01:37:30;;;;;;;7.13;2.65;;;;;;;;;;4945530;28;20466;-58
2024/01/26 01:39:56;;;;;;;4.80;2.30;;;;;;;;;;4951801;28;20051;-58
2024/01/26 01:42:22;;;;;;;4.30;2.40;;;;;;;;;;4951728;28;20038;-58
2024/01/26 01:44:48;;;;;;;5.13;3.00;;;;;;;;;;4951914;28;20054;-59
2024/01/26 01:47:15;;;;;;;5.32;2.33;;;;;;;;;;4952470;28;20058;-58
2024/01/26 01:49:42;;;;;;;3.30;2.05;;;;;;;;;;4950855;28;20065;-58
2024/01/26 01:52:10;;;;;;;5.28;2.35;;;;;;;;;;4950974;29;20039;-59
2024/01/26 01:54:40;;;;;;;4.80;2.30;;;;;;;;;;4951508;28;20059;-58
2024/01/26 01:57:06;;;;;;;3.72;2.50;;;;;;;;;;4951392;28;20035;-59
2024/01/26 01:59:33;;;;;;;7.97;2.30;;;;;;;;;;4950999;29;20404;-59
2024/01/26 02:02:00;;;;;;;4.78;2.42;;;;;;;;;;4951593;28;20047;-58
2024/01/26 02:04:26;;;;;;;3.67;2.35;;;;;;;;;;4951701;29;20046;-59
2024/01/26 02:06:54;;;;;;;4.18;2.30;;;;;;;;;;4951908;28;20530;-60
2024/01/26 02:09:20;;;;;;;4.53;2.30;;;;;;;;;;4951615;28;20155;-58
2024/01/26 02:11:47;;;;;;;4.63;2.30;;;;;;;;;;4951643;29;20042;-58
2024/01/26 02:14:13;;;;;;;3.72;2.30;;;;;;;;;;4950661;28;20058;-59
2024/01/26 02:16:39;;;;;;;4.53;2.28;;;;;;;;;;4951316;28;20038;-58
2024/01/26 02:19:05;;;;;;;3.92;2.70;;;;;;;;;;4951975;29;20035;-58
2024/01/26 02:21:31;;;;;;;6.13;2.35;;;;;;;;;;4951327;29;20051;-60
2024/01/26 02:23:58;;;;;;;3.70;2.35;;;;;;;;;;4951823;28;20062;-58
2024/01/26 02:26:24;;;;;;;7.13;2.65;;;;;;;;;;4950760;28;20062;-59
2024/01/26 02:28:50;;;;;;;4.88;2.40;;;;;;;;;;4949565;29;20365;-58
2024/01/26 02:31:16;;;;;;;5.38;2.45;;;;;;;;;;4945482;28;20054;-60
2024/01/26 02:33:42;;;;;;;4.13;2.17;;;;;;;;;;4947947;28;20499;-58
2024/01/26 02:36:08;;;;;;;2.85;1.67;;;;;;;;;;4951595;28;20055;-58
2024/01/26 02:38:34;;;;;;;3.45;1.92;;;;;;;;;;4950863;28;20054;-58
2024/01/26 02:41:01;;;;;;;3.22;1.95;;;;;;;;;;4949430;28;20047;-58
2024/01/26 02:43:27;;;;;;;4.22;2.00;;;;;;;;;;4949638;28;20628;-58
2024/01/26 02:45:53;;;;;;;6.68;2.10;;;;;;;;;;4951104;28;20027;-58
2024/01/26 02:48:23;;;;;;;5.32;2.22;;;;;;;;;;4951143;28;20511;-58
2024/01/26 02:50:49;;;;;;;4.60;1.80;;;;;;;;;;4951377;28;20070;-58
2024/01/26 02:53:15;;;;;;;2.72;2.00;;;;;;;;;;4950889;28;20066;-60
2024/01/26 02:55:41;;;;;;;3.90;2.00;;;;;;;;;;4950859;28;20051;-58
2024/01/26 02:58:07;;;;;;;4.22;1.90;;;;;;;;;;4950161;28;20051;-57
2024/01/26 03:00:33;;;;;;;8.90;2.28;;;;;;;;;;4949821;29;20051;-58
2024/01/26 03:03:00;;;;;;;2.88;1.80;;;;;;;;;;4951086;29;20035;-58
2024/01/26 03:05:26;;;;;;;3.70;1.73;;;;;;;;;;4949318;28;20065;-58
2024/01/26 03:07:52;;;;;;;4.05;2.33;;;;;;;;;;4949470;29;20047;-58
2024/01/26 03:10:18;;;;;;;2.00;1.70;;;;;;;;;;4949857;29;20046;-57
2024/01/26 03:12:44;;;;;;;3.50;2.00;;;;;;;;;;4950339;28;20063;-58
2024/01/26 03:15:10;;;;;;;3.67;1.60;;;;;;;;;;4950817;29;20035;-58
2024/01/26 03:17:36;;;;;;;3.33;1.55;;;;;;;;;;4950998;28;20055;-58
2024/01/26 03:20:03;;;;;;;3.63;1.85;;;;;;;;;;4951178;28;20062;-58
2024/01/26 03:22:29;;;;;;;5.97;1.92;;;;;;;;;;4950504;29;20047;-57
2024/01/26 03:24:55;;;;;;;3.53;1.60;;;;;;;;;;4950851;28;20046;-58
2024/01/26 03:27:21;;;;;;;1.98;1.40;;;;;;;;;;4950251;29;20042;-59
2024/01/26 03:29:47;;;;;;;3.38;1.70;;;;;;;;;;4951492;28;20431;-58
2024/01/26 03:32:13;;;;;;;1.52;1.30;;;;;;;;;;4946461;29;20039;-59
2024/01/26 03:34:39;;;;;;;3.80;1.40;;;;;;;;;;4950610;29;20035;-61
2024/01/26 03:37:05;;;;;;;3.53;1.73;;;;;;;;;;4950955;28;20051;-58
2024/01/26 03:39:32;;;;;;;2.85;1.42;;;;;;;;;;4950722;29;20035;-57
2024/01/26 03:41:58;;;;;;;3.20;1.35;;;;;;;;;;4951268;29;20343;-58
2024/01/26 03:44:24;;;;;;;4.32;1.35;;;;;;;;;;4950958;29;20043;-58
2024/01/26 03:46:50;;;;;;;3.30;1.30;;;;;;;;;;4951315;28;20059;-58
2024/01/26 03:49:16;;;;;;;2.33;1.30;;;;;;;;;;4950854;28;20070;-59
2024/01/26 03:51:42;;;;;;;2.70;1.20;;;;;;;;;;4951147;29;20035;-58
2024/01/26 03:54:08;;;;;;;3.17;1.35;;;;;;;;;;4950740;28;20059;-59
2024/01/26 03:56:34;;;;;;;2.47;1.13;;;;;;;;;;4953423;28;20047;-61
2024/01/26 03:59:00;;;;;;;5.78;1.20;;;;;;;;;;4954955;28;20046;-59
2024/01/26 04:01:26;;;;;;;2.65;1.83;;;;;;;;;;4953201;29;20050;-59
2024/01/26 04:03:53;;;;;;;1.13;1.00;;;;;;;;;;4954716;28;20039;-59
2024/01/26 04:06:19;;;;;;;4.13;1.17;;;;;;;;;;4953192;28;20071;-59
2024/01/26 04:08:45;;;;;;;2.13;1.10;;;;;;;;;;4954542;28;20039;-58
2024/01/26 04:11:11;;;;;;;3.22;1.15;;;;;;;;;;4955565;28;20051;-58
2024/01/26 04:13:37;;;;;;;1.50;1.00;;;;;;;;;;4954540;28;20039;-58
2024/01/26 04:16:03;;;;;;;2.65;1.10;;;;;;;;;;4952725;28;20055;-58
2024/01/26 04:18:29;;;;;;;5.03;1.00;;;;;;;;;;4954154;28;20051;-57
2024/01/26 04:20:56;;;;;;;1.90;0.90;;;;;;;;;;4953893;28;20047;-59
2024/01/26 04:23:22;;;;;;;3.33;0.93;;;;;;;;;;4954231;28;20055;-58
2024/01/26 04:25:48;;;;;;;1.30;1.02;;;;;;;;;;4951043;28;20043;-58
2024/01/26 04:28:14;;;;;;;2.30;0.98;;;;;;;;;;4953951;28;20043;-59
2024/01/26 04:30:43;;;;;;;2.63;0.95;;;;;;;;;;4953556;28;20055;-59
2024/01/26 04:33:09;;;;;;;4.05;1.10;;;;;;;;;;4954144;28;20058;-58
2024/01/26 04:35:35;;;;;;;1.52;0.75;;;;;;;;;;4953080;28;20415;-57
2024/01/26 04:38:02;;;;;;;1.88;1.10;;;;;;;;;;4949811;28;20043;-58
2024/01/26 04:40:28;;;;;;;1.52;0.80;;;;;;;;;;4952545;28;20043;-57
2024/01/26 04:42:54;;;;;;;1.75;1.05;;;;;;;;;;4953437;28;20044;-58
2024/01/26 04:45:20;;;;;;;1.58;1.00;;;;;;;;;;4953041;28;20646;-58
2024/01/26 04:47:46;;;;;;;4.57;1.25;;;;;;;;;;4953157;28;20047;-59
2024/01/26 04:50:12;;;;;;;3.88;1.20;;;;;;;;;;4952832;29;20065;-58
2024/01/26 04:52:38;;;;;;;3.88;1.25;;;;;;;;;;4953256;28;20054;-60
2024/01/26 04:55:05;;;;;;;1.60;1.27;;;;;;;;;;4953249;28;20047;-59
2024/01/26 04:57:31;;;;;;;3.35;0.95;;;;;;;;;;4952849;28;20061;-59
2024/01/26 04:59:57;;;;;;;1.40;1.00;;;;;;;;;;4953695;28;20047;-59
2024/01/26 05:02:23;;;;;;;5.18;1.10;;;;;;;;;;4952758;28;20506;-59
2024/01/26 05:04:49;;;;;;;2.50;1.00;;;;;;;;;;4953075;28;20074;-60
2024/01/26 05:07:15;;;;;;;2.78;1.15;;;;;;;;;;4954036;28;20047;-58
2024/01/26 05:09:41;;;;;;;2.67;1.20;;;;;;;;;;4953512;29;20042;-60
2024/01/26 05:12:08;;;;;;;3.17;1.15;;;;;;;;;;4954532;28;20411;-58
2024/01/26 05:14:35;;;;;;;2.40;1.27;;;;;;;;;;4952837;29;20046;-58
2024/01/26 05:17:04;;;;;;;2.17;1.30;;;;;;;;;;4952918;28;20051;-59
2024/01/26 05:19:30;;;;;;;1.77;1.10;;;;;;;;;;4952628;28;20047;-60
2024/01/26 05:21:56;;;;;;;3.72;1.10;;;;;;;;;;4953094;28;20047;-59
2024/01/26 05:24:22;;;;;;;3.85;1.27;;;;;;;;;;4952324;28;20035;-59
2024/01/26 05:26:49;;;;;;;3.33;1.33;;;;;;;;;;4949760;28;21690;-56
2024/01/26 05:29:16;;;;;;;7.28;2.97;;;;;;;;;;4944441;28;20515;-59
2024/01/26 05:31:42;;;;;;;6.00;1.90;;;;;;;;;;4941434;29;20057;-60
2024/01/26 05:34:08;;;;;;;2.78;1.60;;;;;;;;;;4946624;28;20051;-60
2024/01/26 05:36:42;;;;;;;2.63;1.10;;;;;;;;;;4945891;28;20502;-59
2024/01/26 05:39:10;;;;;;;4.00;1.33;;;;;;;;;;4949655;29;20442;-59
2024/01/26 05:41:36;;;;;;;1.90;1.30;;;;;;;;;;4948981;28;20050;-60
2024/01/26 05:44:03;;;;;;;1.48;1.00;;;;;;;;;;4952563;29;20070;-60
2024/01/26 05:46:29;;;;;;;2.28;0.95;;;;;;;;;;4948979;28;20082;-59
2024/01/26 05:48:57;;;;;;;2.53;1.13;;;;;;;;;;4952469;28;20655;-60
2024/01/26 05:51:26;;;;;;;3.88;2.00;;;;;;;;;;4950898;29;20047;-59
2024/01/26 05:53:52;;;;;;;4.68;2.28;;;;;;;;;;4952470;28;20054;-58
2024/01/26 05:56:18;;;;;;;1.80;1.13;;;;;;;;;;4952045;28;20202;-58
2024/01/26 05:58:45;;;;;;;4.70;1.30;;;;;;;;;;4952066;29;20046;-58
2024/01/26 06:01:11;;;;;;;2.90;1.65;;;;;;;;;;4951794;29;20043;-59
2024/01/26 06:03:37;;;;;;;3.13;1.02;;;;;;;;;;4953964;28;20054;-59
2024/01/26 06:06:04;;;;;;;2.08;1.10;;;;;;;;;;4951837;28;20039;-59
2024/01/26 06:08:30;;;;;;;1.35;0.95;;;;;;;;;;4952134;28;20530;-58
2024/01/26 06:10:57;;;;;;;3.25;1.30;;;;;;;;;;4952568;29;20514;-59
2024/01/26 06:13:23;;;;;;;2.10;1.00;;;;;;;;;;4950402;29;20047;-59
2024/01/26 06:15:50;;;;;;;2.47;0.93;;;;;;;;;;4951173;28;20545;-61
2024/01/26 06:18:17;;;;;;;1.00;0.90;;;;;;;;;;4951659;28;20439;-58
2024/01/26 06:20:43;;;;;;;2.22;1.08;;;;;;;;;;4952625;28;20043;-61
2024/01/26 06:23:09;;;;;;;2.85;1.50;;;;;;;;;;4951960;28;20058;-61
2024/01/26 06:25:35;;;;;;;4.47;1.40;;;;;;;;;;4951522;28;20046;-58
2024/01/26 06:28:01;;;;;;;3.20;1.52;;;;;;;;;;4945261;29;20042;-59
2024/01/26 06:30:28;;;;;;;1.58;0.82;;;;;;;;;;4952411;28;20137;-58
2024/01/26 06:32:54;;;;;;;2.95;1.08;;;;;;;;;;4953244;28;20031;-61
2024/01/26 06:35:20;;;;;;;4.97;1.30;;;;;;;;;;4953619;28;20047;-58
2024/01/26 06:37:47;;;;;;;2.72;1.50;;;;;;;;;;4950322;28;20039;-58
2024/01/26 06:40:13;;;;;;;2.08;1.10;;;;;;;;;;4951619;28;20062;-59
2024/01/26 06:42:39;;;;;;;1.88;1.13;;;;;;;;;;4955798;28;20932;-58
2024/01/26 06:45:10;;;;;;;2.25;1.10;;;;;;;;;;4951252;28;20051;-58
2024/01/26 06:47:36;;;;;;;3.60;1.55;;;;;;;;;;4950023;28;20054;-58
2024/01/26 06:50:03;;;;;;;1.42;1.30;;;;;;;;;;4950751;28;20043;-60
2024/01/26 06:52:29;;;;;;;1.75;1.10;;;;;;;;;;4951285;28;20059;-58
2024/01/26 06:54:56;;;;;;;1.95;0.82;;;;;;;;;;4948309;28;20149;-57
2024/01/26 06:57:22;;;;;;;1.50;1.05;;;;;;;;;;4951102;28;20051;-57
2024/01/26 06:59:48;;;;;;;4.15;2.08;;;;;;;;;;4950741;28;20082;-58
2024/01/26 07:02:14;;;;;;;16.00;5.85;;;;;;;;;;4951037;28;20050;-57
2024/01/26 07:04:41;;;;;;;2.45;1.42;;;;;;;;;;4950822;28;20039;-58
2024/01/26 07:07:07;;;;;;;0.80;0.80;;;;;;;;;;4950909;28;20047;-58
2024/01/26 07:09:33;;;;;;;2.15;1.20;;;;;;;;;;4950709;28;20051;-58
2024/01/26 07:11:59;;;;;;;3.17;1.45;;;;;;;;;;4949286;28;20046;-58
2024/01/26 07:14:25;;;;;;;3.92;1.70;;;;;;;;;;4950440;28;20035;-58
2024/01/26 07:16:51;;;;;;;1.30;1.13;;;;;;;;;;4951184;28;20054;-58
2024/01/26 07:19:17;;;;;;;1.10;0.98;;;;;;;;;;4951265;28;20043;-58
2024/01/26 07:21:44;;;;;;;2.75;1.48;;;;;;;;;;4950624;28;20499;-58
2024/01/26 07:24:10;;;;;;;0.90;0.80;;;;;;;;;;4950926;28;20079;-59
2024/01/26 07:26:37;;;;;;;2.00;1.10;;;;;;;;;;4950886;28;20054;-58
2024/01/26 07:29:03;;;;;;;3.22;0.90;;;;;;;;;;4956268;28;20039;-57
2024/01/26 07:31:29;;;;;;;1.88;1.20;;;;;;;;;;4950147;28;20055;-58
2024/01/26 07:33:55;;;;;;;2.17;1.23;;;;;;;;;;4954953;28;20054;-58
2024/01/26 07:36:22;;;;;;;2.08;1.15;;;;;;;;;;4954222;28;20043;-58
2024/01/26 07:38:48;;;;;;;2.53;1.02;;;;;;;;;;4950057;28;20051;-58
2024/01/26 07:41:14;;;;;;;2.85;0.90;;;;;;;;;;4953645;28;20035;-57
2024/01/26 07:43:40;;;;;;;2.92;1.40;;;;;;;;;;4951591;28;20046;-58
2024/01/26 07:46:06;;;;;;;1.95;1.13;;;;;;;;;;4954725;28;20039;-58
2024/01/26 07:48:32;;;;;;;2.65;1.00;;;;;;;;;;4954083;28;20099;-58
2024/01/26 07:50:59;;;;;;;1.23;0.80;;;;;;;;;;4954260;28;20415;-59
2024/01/26 07:53:25;;;;;;;2.38;1.70;;;;;;;;;;4955264;28;20113;-58
2024/01/26 07:55:51;;;;;;;3.10;1.20;;;;;;;;;;4954965;28;20051;-58
2024/01/26 07:58:17;;;;;;;2.83;1.27;;;;;;;;;;4953974;28;20090;-56
2024/01/26 08:00:44;;;;;;;1.52;1.02;;;;;;;;;;4954528;28;20042;-58
2024/01/26 08:03:11;;;;;;;2.13;1.00;;;;;;;;;;4955906;28;20383;-57
2024/01/26 08:05:37;;;;;;;2.33;1.25;;;;;;;;;;4952836;28;20327;-57
2024/01/26 08:08:03;;;;;;;2.60;1.15;;;;;;;;;;4953811;28;20503;-61
2024/01/26 08:10:29;;;;;;;2.13;1.10;;;;;;;;;;4951832;28;20031;-59
2024/01/26 08:12:56;;;;;;;1.65;1.13;;;;;;;;;;4953417;28;20043;-60
2024/01/26 08:15:22;;;;;;;2.58;1.10;;;;;;;;;;4953620;28;20565;-58
2024/01/26 08:17:48;;;;;;;2.90;1.50;;;;;;;;;;4953808;28;20051;-59
2024/01/26 08:20:14;;;;;;;1.83;1.00;;;;;;;;;;4953774;28;20051;-59
2024/01/26 08:22:40;;;;;;;2.63;1.30;;;;;;;;;;4953883;28;20054;-58
2024/01/26 08:25:08;;;;;;;3.05;1.55;;;;;;;;;;4952860;28;20058;-58
2024/01/26 08:27:34;;;;;;;1.98;1.50;;;;;;;;;;4958851;28;20058;-58
2024/01/26 08:30:00;;;;;;;3.13;1.27;;;;;;;;;;4959649;28;20581;-58
2024/01/26 08:32:26;;;;;;;2.53;1.17;;;;;;;;;;4953319;28;20104;-58
2024/01/26 08:34:52;;;;;;;2.78;1.80;;;;;;;;;;4953193;28;20066;-58
2024/01/26 08:37:18;;;;;;;3.40;1.65;;;;;;;;;;4952137;28;20050;-59
2024/01/26 08:39:45;;;;;;;1.75;1.27;;;;;;;;;;4959337;28;20047;-58
2024/01/26 08:42:12;;;;;;;3.55;1.30;;;;;;;;;;4952264;28;20047;-58
2024/01/26 08:44:38;;;;;;;1.83;1.30;;;;;;;;;;4953270;28;20047;-58
2024/01/26 08:47:05;;;;;;;1.85;1.35;;;;;;;;;;4959946;28;20051;-58
2024/01/26 08:49:31;;;;;;;3.05;1.13;;;;;;;;;;4954501;28;20518;-58
2024/01/26 08:52:01;;;;;;;2.70;1.40;;;;;;;;;;4955077;28;20047;-58
2024/01/26 08:54:27;;;;;;;3.30;1.60;;;;;;;;;;4951213;28;20422;-58
2024/01/26 08:56:53;;;;;;;2.60;1.40;;;;;;;;;;4951319;28;20035;-58
2024/01/26 08:59:19;;;;;;;1.65;1.30;;;;;;;;;;4953159;28;20043;-58
2024/01/26 09:01:45;;;;;;;3.25;1.50;;;;;;;;;;4944124;28;20055;-57
2024/01/26 09:04:12;;;;;;;4.75;1.95;;;;;;;;;;4947340;28;20411;-58
2024/01/26 09:06:38;;;;;;;4.47;1.58;;;;;;;;;;4951871;28;20549;-56
2024/01/26 09:09:04;;;;;;;1.98;1.50;;;;;;;;;;4952270;28;20039;-58
2024/01/26 09:11:30;;;;;;;4.13;2.00;;;;;;;;;;4952461;28;20070;-58
2024/01/26 09:13:57;;;;;;;3.95;1.70;;;;;;;;;;4956398;28;20046;-58
2024/01/26 09:16:23;;;;;;;1.90;1.55;;;;;;;;;;4954870;28;20141;-59
2024/01/26 09:18:49;;;;;;;3.58;1.30;;;;;;;;;;4953247;28;20430;-57
2024/01/26 09:21:15;;;;;;;17.55;6.85;;;;;;;;;;4951268;28;20542;-58
2024/01/26 09:23:43;;;;;;;4.65;1.90;;;;;;;;;;4950756;28;20047;-59
2024/01/26 09:26:12;;;;;;;3.83;1.52;;;;;;;;;;4951748;28;20043;-58
2024/01/26 09:28:38;;;;;;;3.72;1.55;;;;;;;;;;4957794;28;20047;-59
2024/01/26 09:31:05;;;;;;;6.20;2.92;;;;;;;;;;4952240;28;20042;-60
2024/01/26 09:33:32;;;;;;;7.88;2.80;;;;;;;;;;4952535;28;20446;-58
2024/01/26 09:35:58;;;;;;;4.47;2.33;;;;;;;;;;4957572;28;20039;-59
2024/01/26 09:38:24;;;;;;;3.28;1.80;;;;;;;;;;4953450;28;20422;-58
2024/01/26 09:40:51;;;;;;;3.78;1.65;;;;;;;;;;4953159;28;20043;-58
2024/01/26 09:43:17;;;;;;;3.72;1.85;;;;;;;;;;4952731;28;20051;-58
2024/01/26 09:45:43;;;;;;;4.78;2.30;;;;;;;;;;4947764;28;20039;-59
2024/01/26 09:48:10;;;;;;;3.35;2.13;;;;;;;;;;4953681;28;20043;-58
2024/01/26 09:50:36;;;;;;;4.97;1.83;;;;;;;;;;4953505;28;20417;-57
2024/01/26 09:53:03;;;;;;;3.13;1.70;;;;;;;;;;4958197;28;20047;-58
2024/01/26 09:55:32;;;;;;;3.88;2.28;;;;;;;;;;4952604;28;20034;-58
2024/01/26 09:57:59;;;;;;;4.10;2.55;;;;;;;;;;4954350;28;20047;-58
2024/01/26 10:00:26;;;;;;;4.15;1.85;;;;;;;;;;4951737;28;20067;-58
2024/01/26 10:02:52;;;;;;;3.85;1.98;;;;;;;;;;4951188;28;20424;-58
2024/01/26 10:05:19;;;;;;;4.95;2.08;;;;;;;;;;4951485;28;20047;-59
2024/01/26 10:07:45;;;;;;;3.67;1.80;;;;;;;;;;4953576;28;20495;-58
2024/01/26 10:10:12;;;;;;;2.30;1.65;;;;;;;;;;4953359;28;20051;-58
2024/01/26 10:12:38;;;;;;;3.80;1.80;;;;;;;;;;4952269;28;20070;-58
2024/01/26 10:15:07;;;;;;;5.07;2.15;;;;;;;;;;4952763;28;20058;-58
2024/01/26 10:17:33;;;;;;;3.22;1.90;;;;;;;;;;4951541;28;20058;-58
2024/01/26 10:20:09;;;;;;;2.20;1.60;;;;;;;;;;4954082;28;20531;-59
2024/01/26 10:22:39;;;;;;;3.45;2.03;;;;;;;;;;4953978;28;20043;-59
2024/01/26 10:25:05;;;;;;;3.33;1.70;;;;;;;;;;4952597;28;20623;-58
2024/01/26 10:27:32;;;;;;;3.80;2.00;;;;;;;;;;4964762;28;20042;-58
2024/01/26 10:29:58;;;;;;;5.00;2.00;;;;;;;;;;4952571;28;20046;-59
2024/01/26 10:32:27;;;;;;;3.08;2.00;;;;;;;;;;4951204;28;20455;-59
2024/01/26 10:35:00;;;;;;;4.43;1.83;;;;;;;;;;4949021;28;20058;-59
2024/01/26 10:37:31;;;;;;;5.63;2.45;;;;;;;;;;4951742;28;20050;-59
2024/01/26 10:39:59;;;;;;;4.05;2.05;;;;;;;;;;4950801;28;20061;-58
2024/01/26 10:42:26;;;;;;;3.30;1.77;;;;;;;;;;4953603;28;20426;-58
2024/01/26 10:44:54;;;;;;;3.60;1.90;;;;;;;;;;4949116;28;20051;-58
2024/01/26 10:47:21;;;;;;;2.88;1.83;;;;;;;;;;4950827;28;20050;-58
2024/01/26 10:49:51;;;;;;;3.45;1.70;;;;;;;;;;4951656;28;20047;-60
2024/01/26 10:52:19;;;;;;;;;;;;;;;;;;4948535;28;20061;-58
2024/01/26 10:54:47;;;;;;;3.20;1.80;;;;;;;;;;4953603;28;19943;-57
2024/01/26 10:57:14;;;;;;;4.07;1.88;;;;;;;;;;4954268;28;20038;-58
2024/01/26 10:59:43;;;;;;;4.15;2.00;;;;;;;;;;4952527;28;20058;-58
2024/01/26 11:02:13;;;;;;;4.03;2.17;;;;;;;;;;4953091;28;20057;-57
2024/01/26 11:04:43;;;;;;;2.63;2.00;;;;;;;;;;4951391;28;20047;-59
2024/01/26 11:07:09;;;;;;;2.85;2.05;;;;;;;;;;4954401;28;20062;-58
2024/01/26 11:09:41;;;;;;;4.70;2.00;;;;;;;;;;4952018;28;20039;-58
2024/01/26 11:12:29;;;;;;;3.30;2.15;;;;;;;;;;4951736;28;20042;-59
2024/01/26 11:15:13;;;;;;;3.80;2.05;;;;;;;;;;4950971;28;20406;-58
2024/01/26 11:17:51;;;;;;;2.83;2.13;;;;;;;;;;4955446;28;20042;-59
2024/01/26 11:20:25;;;;;;;6.68;2.88;;;;;;;;;;4973455;28;20061;-58
2024/01/26 11:23:12;;;;;;;2.38;1.90;;;;;;;;;;4955666;28;20074;-59
2024/01/26 11:25:41;;;;;;;3.65;1.52;;;;;;;;;;4955284;28;20400;-59
2024/01/26 11:28:08;;;;;;;3.38;1.98;;;;;;;;;;4957606;28;20062;-60
2024/01/26 11:30:35;;;;;;;5.40;2.22;;;;;;;;;;4955744;28;20138;-59
2024/01/26 11:33:02;;;;;;;3.17;1.55;;;;;;;;;;4960490;28;20062;-59
2024/01/26 11:35:28;;;;;;;2.08;1.67;;;;;;;;;;4954484;28;20048;-59
2024/01/26 11:37:58;;;;;;;5.25;2.30;;;;;;;;;;4955622;28;20039;-59
2024/01/26 11:40:24;;;;;;;;;;;;;;;;;;4953757;28;20039;-59
2024/01/26 11:42:51;;;;;;;6.10;2.75;;;;;;;;;;4958092;28;19925;-59
2024/01/26 11:45:37;;;;;;;10.90;3.90;;;;;;;;;;4946307;28;20047;-57
2024/01/26 11:48:07;;;;;;;4.32;1.95;;;;;;;;;;4949769;28;20054;-57
2024/01/26 11:50:33;;;;;;;2.58;1.67;;;;;;;;;;4949636;28;20526;-56
2024/01/26 11:53:00;;;;;;;5.38;2.10;;;;;;;;;;4949665;28;20056;-57
2024/01/26 11:55:26;;;;;;;2.65;1.80;;;;;;;;;;4949028;28;20054;-59
2024/01/26 11:57:52;;;;;;;3.00;2.17;;;;;;;;;;4950378;28;20043;-58
2024/01/26 12:00:18;;;;;;;3.13;2.00;;;;;;;;;;4952741;28;20062;-58
2024/01/26 12:02:45;;;;;;;4.10;2.10;;;;;;;;;;4950993;28;20039;-58
2024/01/26 12:05:11;;;;;;;5.60;2.25;;;;;;;;;;4949641;28;20047;-58
2024/01/26 12:07:37;;;;;;;4.45;2.00;;;;;;;;;;4951221;28;20058;-58
2024/01/26 12:10:05;;;;;;;5.00;1.98;;;;;;;;;;4949912;29;20058;-58
2024/01/26 12:12:31;;;;;;;4.63;2.38;;;;;;;;;;4949894;28;20062;-57
2024/01/26 12:14:57;;;;;;;6.65;2.15;;;;;;;;;;4950630;28;20039;-59
2024/01/26 12:17:23;;;;;;;3.72;2.22;;;;;;;;;;4953083;28;20050;-59
2024/01/26 12:19:50;;;;;;;5.05;2.45;;;;;;;;;;4952911;29;20112;-58
2024/01/26 12:22:17;;;;;;;10.52;3.72;;;;;;;;;;4954613;28;20078;-59
2024/01/26 12:24:43;;;;;;;7.68;3.58;;;;;;;;;;4954339;28;20054;-58
2024/01/26 12:27:10;;;;;;;5.60;2.80;;;;;;;;;;4953707;28;20035;-58
2024/01/26 12:29:37;;;;;;;9.25;4.72;;;;;;;;;;4950922;29;20034;-57
2024/01/26 12:32:07;;;;;;;9.50;3.88;;;;;;;;;;4950957;29;20155;-57
2024/01/26 12:34:35;;;;;;;6.28;3.13;;;;;;;;;;4953602;28;20466;-58
2024/01/26 12:37:04;;;;;;;12.90;3.97;;;;;;;;;;4954262;28;20046;-58
2024/01/26 12:39:30;;;;;;;4.75;2.28;;;;;;;;;;4952647;29;20035;-59
2024/01/26 12:41:58;;;;;;;3.03;2.20;;;;;;;;;;4953305;28;20043;-58
2024/01/26 12:44:31;;;;;;;3.85;2.35;;;;;;;;;;4952878;28;20510;-59
2024/01/26 12:46:59;;;;;;;4.55;2.30;;;;;;;;;;4953646;28;20051;-58
2024/01/26 12:49:26;;;;;;;6.20;2.65;;;;;;;;;;4953271;28;20495;-58
2024/01/26 12:51:54;;;;;;;5.82;2.15;;;;;;;;;;4953966;28;20043;-58
2024/01/26 12:54:20;;;;;;;3.97;1.77;;;;;;;;;;4953324;28;20070;-58
2024/01/26 12:56:47;;;;;;;7.18;2.58;;;;;;;;;;4953351;28;20043;-57
2024/01/26 12:59:13;;;;;;;3.83;2.15;;;;;;;;;;4953173;28;20047;-59
2024/01/26 13:01:40;;;;;;;2.47;1.50;;;;;;;;;;4950971;29;20046;-58
2024/01/26 13:04:13;;;;;;;3.85;1.92;;;;;;;;;;4953370;28;20073;-59
2024/01/26 13:06:39;;;;;;;2.83;2.17;;;;;;;;;;4952776;28;20051;-58
2024/01/26 13:09:06;;;;;;;4.97;2.67;;;;;;;;;;4951133;28;20058;-59
2024/01/26 13:11:36;;;;;;;4.53;2.10;;;;;;;;;;4958026;28;20042;-59
2024/01/26 13:14:04;;;;;;;4.03;2.55;;;;;;;;;;4960366;28;20054;-57
2024/01/26 13:16:31;;;;;;;5.80;2.30;;;;;;;;;;4954287;28;20047;-57
2024/01/26 13:18:57;;;;;;;2.88;1.88;;;;;;;;;;4953376;29;20443;-59
2024/01/26 13:21:23;;;;;;;5.60;1.70;;;;;;;;;;4953079;28;20511;-59
2024/01/26 13:23:49;;;;;;;3.30;1.90;;;;;;;;;;4953344;28;20046;-59
2024/01/26 13:26:17;;;;;;;3.50;1.95;;;;;;;;;;4952902;29;20035;-58
2024/01/26 13:28:43;;;;;;;6.65;2.90;;;;;;;;;;4945450;28;20043;-60
2024/01/26 13:31:09;;;;;;;3.78;2.33;;;;;;;;;;4953119;28;20039;-58
2024/01/26 13:33:35;;;;;;;4.30;2.40;;;;;;;;;;4953195;28;20035;-57
2024/01/26 13:36:02;;;;;;;4.47;2.00;;;;;;;;;;4952754;28;20396;-58
2024/01/26 13:38:30;;;;;;;3.88;1.98;;;;;;;;;;4950773;28;20035;-57
2024/01/26 13:40:57;;;;;;;4.55;2.30;;;;;;;;;;4955120;28;20039;-57
2024/01/26 13:43:26;;;;;;;5.63;2.20;;;;;;;;;;4951685;28;20043;-58
2024/01/26 13:45:54;;;;;;;2.42;1.83;;;;;;;;;;4944247;28;20043;-57
2024/01/26 13:48:21;;;;;;;4.30;2.20;;;;;;;;;;4948930;28;20073;-57
2024/01/26 13:50:48;;;;;;;3.35;2.13;;;;;;;;;;4950131;29;20039;-58
2024/01/26 13:53:15;;;;;;;5.47;2.45;;;;;;;;;;4949893;28;20471;-57
2024/01/26 13:55:41;;;;;;;4.82;2.10;;;;;;;;;;4946533;28;20047;-58
2024/01/26 13:58:07;;;;;;;3.15;2.10;;;;;;;;;;4950773;28;20059;-58
2024/01/26 14:00:33;;;;;;;3.22;1.90;;;;;;;;;;4954834;28;20529;-57
2024/01/26 14:02:59;;;;;;;5.90;3.05;;;;;;;;;;4946088;29;20058;-58
2024/01/26 14:05:26;;;;;;;5.72;3.10;;;;;;;;;;4944052;28;20054;-58
2024/01/26 14:07:52;;;;;;;4.55;2.78;;;;;;;;;;4945986;29;20047;-58
2024/01/26 14:10:18;;;;;;;2.45;1.90;;;;;;;;;;4940561;28;20047;-58
2024/01/26 14:12:44;;;;;;;2.67;1.95;;;;;;;;;;4944370;29;20035;-59
2024/01/26 14:15:13;;;;;;;2.22;1.90;;;;;;;;;;4945900;28;20439;-59
2024/01/26 14:17:40;;;;;;;3.58;2.47;;;;;;;;;;4946787;29;20043;-59
2024/01/26 14:20:06;;;;;;;6.75;2.42;;;;;;;;;;4951047;28;20073;-58
2024/01/26 14:22:32;;;;;;;3.35;2.20;;;;;;;;;;4952283;28;20050;-59
2024/01/26 14:24:58;;;;;;;3.55;2.42;;;;;;;;;;4949728;28;20506;-58
2024/01/26 14:27:25;;;;;;;3.35;2.15;;;;;;;;;;4950315;29;20043;-59
2024/01/26 14:29:51;;;;;;;3.40;2.10;;;;;;;;;;4934147;29;20046;-58
2024/01/26 14:32:17;;;;;;;5.22;2.05;;;;;;;;;;4946546;29;20054;-58
2024/01/26 14:34:44;;;;;;;4.63;2.60;;;;;;;;;;4945827;29;20051;-59
2024/01/26 14:37:10;;;;;;;4.18;1.90;;;;;;;;;;4950549;28;20043;-59
2024/01/26 14:39:38;;;;;;;4.88;2.80;;;;;;;;;;4950237;28;20039;-59
2024/01/26 14:42:04;;;;;;;5.88;2.80;;;;;;;;;;4951884;29;20050;-59